createdAt,value
2019-05-21T20:53:03.048Z,17.00
2019-05-21T20:55:33.987Z,16.80
2019-05-21T20:58:16.474Z,16.70
2019-05-21T21:00:49.570Z,16.70
2019-05-21T21:03:19.683Z,16.60
2019-05-21T21:05:50.033Z,16.50
2019-05-21T21:08:22.661Z,16.40
2019-05-21T21:10:57.318Z,16.30
2019-05-21T21:13:28.869Z,16.50
2019-05-21T21:15:59.331Z,16.40
2019-05-21T21:18:29.863Z,16.20
2019-05-21T21:20:59.539Z,16.10
2019-05-21T21:23:31.000Z,16.00
2019-05-21T21:26:00.945Z,15.90
2019-05-21T21:28:30.654Z,15.90
2019-05-21T21:31:00.622Z,15.90
2019-05-21T21:33:30.754Z,15.90
2019-05-21T21:36:00.747Z,15.80
2019-05-21T21:38:33.386Z,15.80
2019-05-21T21:41:03.052Z,15.80
2019-05-21T21:43:32.830Z,15.70
2019-05-21T21:46:02.699Z,15.60
2019-05-21T21:48:32.817Z,15.70
2019-05-21T21:51:02.646Z,15.60
2019-05-21T21:53:33.035Z,15.40
2019-05-21T21:56:02.679Z,15.50
2019-05-21T21:58:32.527Z,15.40
2019-05-21T22:01:06.580Z,15.40
2019-05-21T22:03:38.921Z,15.30
2019-05-21T22:06:15.351Z,15.30
2019-05-21T22:08:48.347Z,15.20
2019-05-21T22:11:20.065Z,15.20
2019-05-21T22:13:49.950Z,15.30
2019-05-21T22:16:20.300Z,15.20
2019-05-21T22:18:50.862Z,15.10
2019-05-21T22:21:21.149Z,15.10
2019-05-21T22:23:50.860Z,15.10
2019-05-21T22:26:20.558Z,15.10
2019-05-21T22:28:50.477Z,15.00
2019-05-21T22:31:20.262Z,14.90
2019-05-21T22:33:50.031Z,14.90
2019-05-21T22:36:19.921Z,14.80
2019-05-21T22:38:49.738Z,14.80
2019-05-21T22:41:38.605Z,14.70
2019-05-21T22:44:08.174Z,14.70
2019-05-21T22:46:37.794Z,14.70
2019-05-21T22:49:07.420Z,14.60
2019-05-21T22:51:36.991Z,14.70
2019-05-21T22:54:06.674Z,14.50
2019-05-21T22:56:36.368Z,14.50
2019-05-21T22:59:06.150Z,14.60
2019-05-21T23:01:37.842Z,14.40
2019-05-21T23:04:07.522Z,14.30
2019-05-21T23:06:37.459Z,14.40
2019-05-21T23:09:08.603Z,14.30
2019-05-21T23:11:38.587Z,14.30
2019-05-21T23:14:08.307Z,14.30
2019-05-21T23:16:38.093Z,14.30
2019-05-21T23:19:08.902Z,14.30
2019-05-21T23:21:39.709Z,14.20
2019-05-21T23:24:26.111Z,14.20
2019-05-21T23:26:56.358Z,14.10
2019-05-21T23:29:26.342Z,14.10
2019-05-21T23:31:56.336Z,14.00
2019-05-21T23:34:26.833Z,14.00
2019-05-21T23:36:57.769Z,13.80
2019-05-21T23:39:28.432Z,13.80
2019-05-21T23:41:58.187Z,13.70
2019-05-21T23:44:27.979Z,13.60
2019-05-21T23:46:58.279Z,13.60
2019-05-21T23:49:28.363Z,13.60
2019-05-21T23:51:58.304Z,13.60
2019-05-21T23:54:28.224Z,13.50
2019-05-21T23:56:59.813Z,13.50
2019-05-21T23:59:29.469Z,13.60
